Time;durP1;ratioP1;P1;durP2;ratioP2;P2;SDS_P1;SDS_P2;PMS_P1;PMS_P2;Temp;Humidity;BMP_temperature;BMP_pressure;BME280_temperature;BME280_humidity;BME280_pressure;Samples;Min_cycle;Max_cycle;Signal;HPM_P1;HPM_P2
2021/07/10 00:03:52;;;;;;;25.77;18.85;;;;;;;19.50;58.47;101989.38;10373955;28;20056;-72
2021/07/10 00:08:52;;;;;;;33.53;20.17;;;;;;;19.42;59.17;101986.09;10374966;28;20068;-72
2021/07/10 00:13:53;;;;;;;32.63;19.00;;;;;;;19.51;59.29;101982.81;10376096;28;20120;-72
2021/07/10 00:18:54;;;;;;;32.88;20.02;;;;;;;19.57;58.53;101974.72;10374851;28;20045;-72
2021/07/10 00:23:57;;;;;;;38.95;22.33;;;;;;;19.43;59.00;101965.78;10375064;28;20037;-71
2021/07/10 00:28:58;;;;;;;38.80;22.05;;;;;;;19.26;59.46;101957.34;10374999;28;20066;-72
2021/07/10 00:33:59;;;;;;;40.05;23.30;;;;;;;19.21;59.07;101962.72;10373573;28;20096;-72
2021/07/10 00:39:00;;;;;;;41.83;24.85;;;;;;;19.04;58.95;101956.97;10358495;28;20048;-72
2021/07/10 00:44:01;;;;;;;37.33;22.38;;;;;;;19.00;59.19;101950.25;10373735;28;20045;-72
2021/07/10 00:49:01;;;;;;;38.45;26.02;;;;;;;18.89;60.20;101962.84;10373454;28;20370;-72
2021/07/10 00:54:02;;;;;;;40.50;27.48;;;;;;;18.90;60.61;101956.28;10375234;28;20038;-72
2021/07/10 00:59:03;;;;;;;40.85;23.65;;;;;;;18.99;60.53;101943.09;10373998;28;20045;-71
2021/07/10 01:04:03;;;;;;;46.00;26.58;;;;;;;18.81;59.90;101906.34;10373427;28;20429;-73
2021/07/10 01:09:04;;;;;;;42.70;25.15;;;;;;;19.10;59.58;101944.25;10356330;28;20041;-72
2021/07/10 01:14:04;;;;;;;47.67;27.08;;;;;;;17.18;59.86;101616.94;10356379;28;20091;-70
2021/07/10 01:19:04;;;;;;;46.15;23.13;;;;;;;19.29;59.82;101926.69;10356506;28;20026;-72
2021/07/10 01:24:05;;;;;;;43.35;24.52;;;;;;;19.26;59.13;101889.53;10372508;28;20042;-72
2021/07/10 01:29:05;;;;;;;44.03;25.98;;;;;;;19.01;59.46;101848.44;10373840;28;20121;-73
2021/07/10 01:34:06;;;;;;;51.60;28.35;;;;;;;19.05;59.98;101901.84;10338861;28;20391;-72
2021/07/10 01:39:06;;;;;;;45.03;28.92;;;;;;;18.81;61.22;101909.06;10375939;28;20030;-71
2021/07/10 01:44:07;;;;;;;45.42;28.05;;;;;;;18.80;61.35;101898.34;10364249;28;20080;-72
2021/07/10 01:49:07;;;;;;;40.88;27.70;;;;;;;18.73;60.61;101898.41;10379976;28;20034;-71
2021/07/10 01:54:08;;;;;;;53.03;27.70;;;;;;;18.57;61.29;101897.06;10381258;28;20153;-72
2021/07/10 01:59:08;;;;;;;44.17;25.05;;;;;;;18.22;60.78;101861.13;10381037;28;20040;-72
2021/07/10 02:04:11;;;;;;;46.67;27.48;;;;;;;18.43;61.46;101900.16;10379849;28;20529;-71
2021/07/10 02:09:12;;;;;;;53.22;28.25;;;;;;;18.34;61.54;101891.38;10380607;28;20030;-71
2021/07/10 02:14:14;;;;;;;32.60;24.10;;;;;;;18.30;62.18;101899.22;10379280;28;20436;-72
2021/07/10 02:19:14;;;;;;;47.95;29.25;;;;;;;18.39;61.61;101887.97;10363051;28;20397;-72
2021/07/10 02:24:15;;;;;;;48.38;25.92;;;;;;;18.27;61.08;101883.22;10378942;28;20105;-71
2021/07/10 02:29:15;;;;;;;44.75;25.58;;;;;;;18.23;61.82;101881.16;10379033;28;20504;-72
2021/07/10 02:34:16;;;;;;;43.40;26.60;;;;;;;16.90;61.48;101660.31;10378840;28;20064;-71
2021/07/10 02:39:16;;;;;;;51.60;25.23;;;;;;;18.11;61.65;101875.56;10378583;28;20038;-71
2021/07/10 02:44:16;;;;;;;47.55;25.98;;;;;;;18.18;61.33;101862.63;10379631;28;20061;-71
2021/07/10 02:49:17;;;;;;;36.58;25.27;;;;;;;17.06;61.32;101675.34;10379181;28;20113;-71
2021/07/10 02:54:17;;;;;;;44.60;28.23;;;;;;;18.20;61.13;101856.94;10378338;28;20386;-71
2021/07/10 02:59:18;;;;;;;47.50;30.00;;;;;;;18.14;61.42;101847.69;10378635;28;20060;-73
2021/07/10 03:04:18;;;;;;;42.88;26.45;;;;;;;18.11;61.24;101835.25;10360035;28;20057;-72
2021/07/10 03:09:18;;;;;;;39.50;25.67;;;;;;;18.03;61.63;101843.78;10377449;28;20038;-72
2021/07/10 03:14:19;;;;;;;37.63;25.75;;;;;;;18.01;61.38;101842.34;10379742;28;20087;-71
2021/07/10 03:19:19;;;;;;;55.35;28.25;;;;;;;17.63;61.41;101824.88;10378500;28;20042;-72
2021/07/10 03:24:20;;;;;;;49.65;27.55;;;;;;;17.82;61.04;101827.72;10360739;28;20456;-72
2021/07/10 03:29:20;;;;;;;45.50;27.40;;;;;;;17.93;61.69;101832.47;10376297;28;20489;-72
2021/07/10 03:34:20;;;;;;;43.10;26.75;;;;;;;18.00;61.70;101827.78;10375399;28;20064;-71
2021/07/10 03:39:21;;;;;;;57.25;26.67;;;;;;;18.03;61.63;101823.78;10376270;28;20057;-71
2021/07/10 03:44:22;;;;;;;61.45;30.02;;;;;;;18.07;61.72;101819.50;10375785;28;20608;-71
2021/07/10 03:49:22;;;;;;;49.65;28.92;;;;;;;18.08;61.39;101815.69;10377202;28;20112;-71
2021/07/10 03:54:23;;;;;;;42.40;25.10;;;;;;;18.13;60.96;101813.97;10376947;28;20164;-71
2021/07/10 03:59:23;;;;;;;51.00;27.38;;;;;;;18.20;61.20;101808.41;10375455;28;20124;-72
2021/07/10 04:04:23;;;;;;;45.30;28.10;;;;;;;18.21;61.23;101807.34;10374817;28;20473;-71
2021/07/10 04:09:24;;;;;;;46.30;28.02;;;;;;;18.25;60.94;101805.84;10374718;28;20037;-72
2021/07/10 04:14:25;;;;;;;48.75;28.45;;;;;;;18.34;60.96;101798.97;10375758;28;20390;-70
2021/07/10 04:19:26;;;;;;;55.80;26.95;;;;;;;18.54;60.57;101806.16;10375603;28;20125;-71
2021/07/10 04:24:26;;;;;;;47.83;28.00;;;;;;;18.66;60.90;101800.72;10375621;28;20038;-71
2021/07/10 04:29:27;;;;;;;43.33;27.17;;;;;;;18.70;60.71;101771.78;10375059;28;20062;-72
2021/07/10 04:34:27;;;;;;;39.97;26.25;;;;;;;17.96;60.33;101603.75;10374413;28;20041;-71
2021/07/10 04:39:27;;;;;;;55.40;30.17;;;;;;;19.44;60.59;101794.44;10373802;28;20037;-71
2021/07/10 04:44:28;;;;;;;46.72;31.67;;;;;;;18.95;60.63;101690.19;10373286;28;20520;-72
2021/07/10 04:49:28;;;;;;;59.90;31.35;;;;;;;19.87;60.38;101796.09;10373258;28;20195;-71
2021/07/10 04:54:29;;;;;;;47.10;28.77;;;;;;;20.99;58.61;101798.56;10373211;28;20441;-72
2021/07/10 04:59:29;;;;;;;51.67;27.27;;;;;;;21.17;57.69;101785.72;10372771;28;20462;-72
2021/07/10 05:04:29;;;;;;;35.25;24.27;;;;;;;21.24;58.14;101801.00;10372922;28;20093;-71
2021/07/10 05:09:30;;;;;;;41.38;26.67;;;;;;;20.64;57.04;101648.19;10373807;28;20061;-72
2021/07/10 05:14:30;;;;;;;32.60;21.80;;;;;;;21.61;57.00;101795.06;10372290;28;20061;-71
2021/07/10 05:19:31;;;;;;;29.75;21.25;;;;;;;21.65;56.72;101801.75;10373712;28;20069;-72
2021/07/10 05:24:31;;;;;;;30.77;23.25;;;;;;;22.13;56.38;101793.97;10372717;28;20034;-72
2021/07/10 05:29:32;;;;;;;41.00;24.00;;;;;;;21.31;56.07;101644.66;10373384;28;20365;-72
2021/07/10 05:34:32;;;;;;;29.27;21.42;;;;;;;21.87;56.84;101790.81;10354762;28;20045;-72
2021/07/10 05:39:33;;;;;;;31.30;21.13;;;;;;;21.55;57.39;101790.56;10373389;28;20057;-71
2021/07/10 05:44:33;;;;;;;31.67;19.63;;;;;;;20.94;57.94;101740.66;10373177;28;20585;-72
2021/07/10 05:49:34;;;;;;;27.13;20.98;;;;;;;21.04;58.77;101798.69;10372057;28;20521;-72
2021/07/10 05:54:34;;;;;;;38.65;21.50;;;;;;;21.19;58.18;101795.41;10371695;28;20034;-72
2021/07/10 05:59:34;;;;;;;33.25;20.75;;;;;;;21.14;58.27;101790.63;10371478;28;20549;-71
2021/07/10 06:04:35;;;;;;;39.65;23.13;;;;;;;21.20;58.67;101794.31;10372375;28;20054;-72
2021/07/10 06:09:35;;;;;;;30.60;19.42;;;;;;;21.31;57.99;101734.72;10355369;28;20034;-71
2021/07/10 06:14:36;;;;;;;23.50;18.38;;;;;;;22.39;56.55;101790.50;10372870;28;20045;-71
2021/07/10 06:19:36;;;;;;;23.25;18.13;;;;;;;22.81;55.17;101791.88;10371253;28;20101;-71
2021/07/10 06:24:37;;;;;;;24.73;17.80;;;;;;;22.91;54.86;101786.44;10320468;28;20049;-72
2021/07/10 06:29:38;;;;;;;28.30;18.30;;;;;;;23.26;54.18;101783.31;10335524;28;20394;-72
2021/07/10 06:34:38;;;;;;;32.15;18.35;;;;;;;22.08;54.21;101612.69;10321121;28;20038;-72
2021/07/10 06:39:39;;;;;;;27.55;17.05;;;;;;;22.96;53.53;101643.75;10338982;28;20042;-71
2021/07/10 06:44:39;;;;;;;20.92;15.23;;;;;;;24.90;51.53;101782.47;10321412;28;20498;-72
2021/07/10 06:49:40;;;;;;;19.10;12.77;;;;;;;23.74;51.85;101737.28;10337188;28;20478;-72
2021/07/10 06:54:40;;;;;;;26.70;15.35;;;;;;;24.05;52.11;101774.28;10321611;28;20117;-73
2021/07/10 06:59:40;;;;;;;22.52;13.68;;;;;;;24.22;52.36;101787.09;10336703;28;20553;-71
2021/07/10 07:04:41;;;;;;;15.65;13.70;;;;;;;25.43;50.38;101771.22;10335996;28;20050;-72
2021/07/10 07:09:41;;;;;;;21.30;13.02;;;;;;;25.90;48.35;101803.44;10336064;28;20026;-71
2021/07/10 07:14:41;;;;;;;19.15;14.57;;;;;;;25.63;47.46;101754.59;10319977;28;20104;-71
2021/07/10 07:19:42;;;;;;;59.35;14.10;;;;;;;25.55;47.85;101779.28;10336064;28;20125;-74
2021/07/10 07:24:42;;;;;;;20.33;14.43;;;;;;;25.15;49.44;101615.44;10296216;28;20405;-71
2021/07/10 07:29:43;;;;;;;27.20;17.52;;;;;;;25.63;49.69;101775.97;10376856;28;20033;-71
2021/07/10 07:34:47;;;;;;;27.15;17.67;;;;;;;26.64;46.58;101735.22;10376167;28;20038;-72
2021/07/10 07:39:48;;;;;;;27.02;18.42;;;;;;;25.91;46.92;101644.16;10376560;28;20109;-71
2021/07/10 07:44:48;;;;;;;24.63;16.75;;;;;;;28.29;44.54;101725.25;10377043;28;20556;-73
2021/07/10 07:49:49;;;;;;;24.80;19.48;;;;;;;28.67;41.48;101748.47;10376561;28;20026;-73
2021/07/10 07:54:50;;;;;;;19.55;17.02;;;;;;;29.50;40.42;101748.91;10374772;28;20197;-74
2021/07/10 07:59:50;;;;;;;23.17;17.13;;;;;;;30.26;39.73;101699.22;10376159;28;20103;-73
2021/07/10 08:04:50;;;;;;;16.42;14.35;;;;;;;30.25;39.48;101602.59;10373717;28;20061;-72
2021/07/10 08:09:51;;;;;;;22.02;14.45;;;;;;;29.92;39.95;101704.38;10374117;28;20034;-74
2021/07/10 08:14:51;;;;;;;16.02;12.02;;;;;;;29.36;40.34;101737.72;10357775;28;20069;-73
2021/07/10 08:19:52;;;;;;;14.85;13.43;;;;;;;28.74;42.11;101725.81;10374323;28;20421;-72
2021/07/10 08:24:52;;;;;;;15.60;13.95;;;;;;;29.00;42.17;101728.22;10374050;28;20026;-73
2021/07/10 08:29:52;;;;;;;13.55;12.35;;;;;;;29.37;40.89;101731.00;10373747;28;20496;-73
2021/07/10 08:34:53;;;;;;;13.27;12.07;;;;;;;29.38;40.31;101729.84;10374310;28;20057;-73
2021/07/10 08:39:53;;;;;;;16.55;14.73;;;;;;;28.47;39.34;101727.28;10374527;28;20041;-72
2021/07/10 08:44:53;;;;;;;20.48;13.43;;;;;;;28.51;42.55;101719.97;10374138;28;20049;-72
2021/07/10 08:49:54;;;;;;;18.98;13.48;;;;;;;29.23;41.23;101716.19;10373609;28;20045;-73
2021/07/10 08:54:54;;;;;;;17.40;13.88;;;;;;;30.53;39.04;101714.31;10373355;28;20033;-73
2021/07/10 08:59:55;;;;;;;14.30;12.82;;;;;;;30.87;37.64;101710.22;10374210;28;20393;-73
2021/07/10 09:04:59;;;;;;;27.70;13.15;;;;;;;30.74;37.36;101697.91;10372753;28;20057;-72
2021/07/10 09:09:59;;;;;;;17.17;12.68;;;;;;;30.19;39.21;101703.56;10372620;28;20045;-73
2021/07/10 09:15:16;;;;;;;14.68;13.13;;;;;;;29.34;41.45;101706.50;10356386;28;20176;-73
2021/07/10 09:20:22;;;;;;;16.03;13.90;;;;;;;28.79;40.85;101699.84;10373462;28;20034;-72
2021/07/10 09:25:26;;;;;;;25.45;16.45;;;;;;;28.39;41.29;101725.13;10372115;28;20029;-73
2021/07/10 09:30:37;;;;;;;16.70;15.07;;;;;;;28.16;41.80;101653.56;10372177;28;20026;-73
2021/07/10 09:35:54;;;;;;;16.38;14.90;;;;;;;27.71;41.20;101539.69;10371859;28;20397;-70
2021/07/10 09:41:04;;;;;;;;;;;;;;;29.62;43.20;101698.25;10373355;28;20477;-70
2021/07/10 09:46:06;;;;;;;18.77;14.02;;;;;;;31.09;36.03;101699.06;10373119;28;19919;-69
2021/07/10 09:51:18;;;;;;;14.10;11.30;;;;;;;31.81;35.10;101684.03;10371572;28;20484;-72
2021/07/10 09:56:19;;;;;;;22.95;13.15;;;;;;;30.72;34.38;101675.84;10372954;28;20033;-71
2021/07/10 10:01:37;;;;;;;18.73;11.48;;;;;;;30.75;38.08;101677.19;10359128;28;20046;-74
2021/07/10 10:06:37;;;;;;;14.20;12.32;;;;;;;29.68;35.82;101549.06;10379775;28;20054;-75
2021/07/10 10:11:48;;;;;;;14.18;12.45;;;;;;;28.77;38.27;101674.22;10379484;28;20050;-76
2021/07/10 10:16:49;;;;;;;17.88;14.48;;;;;;;29.03;36.69;101669.09;10380479;28;20045;-76
2021/07/10 10:21:51;;;;;;;22.75;12.98;;;;;;;30.48;36.49;101611.03;10362653;28;20072;-75
2021/07/10 10:26:51;;;;;;;18.13;14.73;;;;;;;31.79;35.05;101641.53;10379731;28;20090;-76
2021/07/10 10:31:52;;;;;;;13.15;11.77;;;;;;;31.72;31.93;101664.41;10379869;28;20041;-77
2021/07/10 10:36:53;;;;;;;17.38;11.57;;;;;;;31.76;33.69;101613.34;10362001;28;20164;-76
2021/07/10 10:41:58;;;;;;;10.93;9.82;;;;;;;33.29;33.72;101662.69;10380959;28;20061;-77
2021/07/10 10:46:58;;;;;;;11.40;10.30;;;;;;;32.40;31.71;101636.13;10379454;28;20093;-77
2021/07/10 10:52:24;;;;;;;14.63;11.00;;;;;;;32.45;34.75;101633.16;10361890;28;20033;-76
2021/07/10 10:57:43;;;;;;;13.02;10.48;;;;;;;33.29;32.75;101629.00;10379678;28;20034;-74
2021/07/10 11:03:15;;;;;;;15.50;12.27;;;;;;;32.34;33.31;101610.22;10376742;28;20038;-75
2021/07/10 11:08:22;;;;;;;17.55;10.25;;;;;;;30.70;34.56;101605.44;10376733;28;20394;-76
2021/07/10 11:13:42;;;;;;;8.57;7.82;;;;;;;30.68;35.47;101598.53;10375687;28;20113;-76
2021/07/10 11:18:53;;;;;;;9.02;8.07;;;;;;;30.78;35.56;101596.31;10376397;28;20061;-74
2021/07/10 11:23:54;;;;;;;9.32;8.43;;;;;;;30.37;34.84;101571.28;10377936;28;20038;-74
2021/07/10 11:28:54;;;;;;;10.32;9.35;;;;;;;29.85;35.92;101601.47;10360232;28;20092;-75
2021/07/10 11:34:09;;;;;;;10.38;8.10;;;;;;;29.56;37.87;101557.09;10376183;28;20120;-74
2021/07/10 11:39:24;;;;;;;10.27;6.88;;;;;;;29.68;37.27;101588.16;10374898;28;20122;-76
2021/07/10 11:44:28;;;;;;;12.38;11.15;;;;;;;29.77;35.56;101571.47;10376525;28;20037;-75
2021/07/10 11:49:34;;;;;;;15.73;7.40;;;;;;;29.20;35.97;101605.22;10374882;28;20034;-71
2021/07/10 11:54:38;;;;;;;;;;;;;;;30.04;37.40;101574.25;10376486;28;20040;-70
2021/07/10 11:59:38;;;;;;;16.02;8.73;;;;;;;30.44;34.90;101551.28;10376110;28;19910;-72
2021/07/10 12:04:39;;;;;;;11.98;7.10;;;;;;;30.40;34.83;101559.47;10373266;28;20065;-72
2021/07/10 12:09:50;;;;;;;9.95;7.45;;;;;;;30.13;36.13;101532.44;10316748;28;20057;-70
2021/07/10 12:14:55;;;;;;;8.95;5.25;;;;;;;30.27;35.37;101526.84;10373327;28;20441;-69
2021/07/10 12:19:56;;;;;;;10.15;7.18;;;;;;;30.28;35.25;101545.22;10374086;28;20041;-72
2021/07/10 12:25:00;;;;;;;8.98;8.18;;;;;;;29.73;35.73;101546.16;10355703;28;20482;-74
2021/07/10 12:30:00;;;;;;;17.70;15.98;;;;;;;29.26;38.21;101552.94;10373931;28;20442;-72
2021/07/10 12:35:01;;;;;;;22.48;17.45;;;;;;;28.34;40.38;101566.41;10372008;28;20038;-71
2021/07/10 12:40:05;;;;;;;23.75;20.02;;;;;;;27.02;42.00;101502.88;10395152;28;20099;-73
2021/07/10 12:45:09;;;;;;;24.73;19.98;;;;;;;26.39;44.03;101519.56;10387385;28;20462;-70
2021/07/10 12:50:09;;;;;;;24.95;19.90;;;;;;;25.49;45.28;101451.22;10372377;28;20124;-70
2021/07/10 12:55:11;;;;;;;31.27;20.60;;;;;;;25.62;46.57;101558.78;10356554;28;20037;-68
2021/07/10 13:00:14;;;;;;;32.30;24.45;;;;;;;25.15;47.90;101565.56;10373892;28;20041;-71
2021/07/10 13:05:21;;;;;;;25.63;21.63;;;;;;;24.76;48.63;101573.56;10371224;28;20441;-70
2021/07/10 13:10:27;;;;;;;26.75;20.88;;;;;;;23.61;49.34;101437.16;10354507;28;20466;-71
2021/07/10 13:15:29;;;;;;;31.80;22.63;;;;;;;24.25;51.16;101570.69;10355428;28;20030;-70
2021/07/10 13:20:30;;;;;;;33.95;20.98;;;;;;;24.07;51.14;101572.88;10356160;28;20034;-69
2021/07/10 13:25:37;;;;;;;26.40;17.48;;;;;;;23.61;51.95;101575.41;9465601;28;10001017;-65
2021/07/10 13:30:37;;;;;;;14.05;12.05;;;;;;;23.13;51.86;101579.22;10379828;28;20029;-63
2021/07/10 13:35:38;;;;;;;16.08;10.95;;;;;;;22.82;51.91;101576.22;10375722;28;20053;-64
2021/07/10 13:40:38;;;;;;;17.02;9.77;;;;;;;22.57;52.21;101574.06;10379441;28;20085;-65
2021/07/10 13:45:38;;;;;;;10.45;8.75;;;;;;;22.46;52.42;101586.06;10380455;28;20048;-70
2021/07/10 13:50:39;;;;;;;13.18;9.43;;;;;;;22.43;51.97;101584.69;10379941;28;20034;-67
2021/07/10 13:55:41;;;;;;;9.50;7.13;;;;;;;22.43;51.94;101581.06;10380208;28;20030;-68
2021/07/10 14:00:41;;;;;;;9.80;8.05;;;;;;;21.77;52.40;101470.84;10379202;28;20029;-67
2021/07/10 14:05:44;;;;;;;16.33;10.50;;;;;;;22.52;52.64;101582.28;10378855;28;20082;-71
2021/07/10 14:10:51;;;;;;;17.23;13.27;;;;;;;21.71;51.65;101442.38;10380232;28;20044;-69
2021/07/10 14:15:53;;;;;;;14.93;12.55;;;;;;;22.51;52.93;101575.09;10360658;28;20092;-70
2021/07/10 14:20:54;;;;;;;19.52;14.15;;;;;;;21.54;53.76;101398.38;10362803;28;20026;-69
2021/07/10 14:25:57;;;;;;;20.88;16.52;;;;;;;22.41;53.15;101526.16;10379681;28;20026;-69
2021/07/10 14:30:58;;;;;;;23.45;20.05;;;;;;;22.68;54.07;101550.94;10378356;28;20034;-69
2021/07/10 14:35:58;;;;;;;28.52;18.77;;;;;;;22.72;54.60;101559.56;10377606;28;20045;-70
2021/07/10 14:40:58;;;;;;;33.15;24.45;;;;;;;22.97;54.95;101570.84;10374798;28;20088;-69
2021/07/10 14:45:59;;;;;;;36.47;26.25;;;;;;;23.18;55.81;101565.47;10332680;28;20073;-68
2021/07/10 14:50:59;;;;;;;41.97;27.38;;;;;;;22.18;54.93;101380.28;10376801;28;20057;-67
2021/07/10 14:56:02;;;;;;;37.92;27.45;;;;;;;23.53;55.28;101562.09;10379274;28;20184;-68
2021/07/10 15:01:02;;;;;;;23.88;20.77;;;;;;;23.69;55.12;101565.78;10377879;28;20038;-69
2021/07/10 15:06:03;;;;;;;30.73;21.92;;;;;;;23.83;54.37;101555.06;10376995;28;20482;-70
2021/07/10 15:11:03;;;;;;;25.95;21.75;;;;;;;23.82;54.31;101543.16;10378303;28;20073;-70
2021/07/10 15:16:04;;;;;;;26.70;20.17;;;;;;;24.09;53.55;101548.53;10378251;28;20038;-71
2021/07/10 15:21:05;;;;;;;28.17;20.13;;;;;;;24.11;53.71;101551.00;10378288;28;20462;-71
2021/07/10 15:26:05;;;;;;;25.15;20.73;;;;;;;23.32;53.79;101384.25;10376753;28;20030;-71
2021/07/10 15:31:06;;;;;;;35.20;22.00;;;;;;;24.38;53.98;101550.81;10359971;28;20041;-72
2021/07/10 15:36:06;;;;;;;34.15;25.08;;;;;;;24.12;54.35;101541.59;10375558;28;20045;-72
2021/07/10 15:41:07;;;;;;;30.35;23.65;;;;;;;24.17;54.33;101543.56;10376066;28;20060;-71
2021/07/10 15:46:07;;;;;;;26.65;22.45;;;;;;;24.27;54.18;101549.94;10376470;28;20513;-71
2021/07/10 15:51:07;;;;;;;29.15;20.35;;;;;;;23.39;53.74;101412.50;10376846;28;20046;-71
2021/07/10 15:56:08;;;;;;;27.95;21.30;;;;;;;24.19;53.92;101538.59;10375212;28;20063;-71
2021/07/10 16:01:08;;;;;;;34.60;22.50;;;;;;;24.02;54.10;101516.66;10376390;28;20478;-71
2021/07/10 16:06:09;;;;;;;33.25;23.30;;;;;;;24.12;53.71;101536.06;10374835;28;20060;-72
2021/07/10 16:11:09;;;;;;;28.70;21.67;;;;;;;24.02;54.24;101536.88;10375133;28;20136;-71
2021/07/10 16:16:09;;;;;;;23.70;21.05;;;;;;;23.90;54.17;101528.81;10374649;28;20029;-71
2021/07/10 16:21:10;;;;;;;26.98;20.40;;;;;;;23.83;54.42;101524.63;10374364;28;20042;-71
2021/07/10 16:26:11;;;;;;;33.42;24.15;;;;;;;23.55;54.70;101506.53;10374366;28;20038;-72
2021/07/10 16:31:11;;;;;;;33.00;24.63;;;;;;;23.67;55.75;101529.25;10357941;28;20037;-72
2021/07/10 16:36:12;;;;;;;32.85;26.00;;;;;;;23.74;55.32;101518.81;10373557;28;20061;-72
2021/07/10 16:41:12;;;;;;;35.60;25.55;;;;;;;23.80;55.72;101523.28;10373601;28;20042;-71
2021/07/10 16:46:12;;;;;;;36.30;26.15;;;;;;;23.72;55.43;101496.13;10374825;28;20065;-72
2021/07/10 16:51:13;;;;;;;34.25;26.63;;;;;;;22.93;56.26;101379.13;10374776;28;20366;-71
2021/07/10 16:56:13;;;;;;;42.08;28.55;;;;;;;23.67;56.31;101507.97;10374567;28;20180;-72
2021/07/10 17:01:13;;;;;;;32.85;26.63;;;;;;;23.63;56.36;101511.53;10373940;28;20049;-72
2021/07/10 17:06:14;;;;;;;30.77;22.88;;;;;;;23.32;56.40;101480.97;10373263;28;20410;-71
2021/07/10 17:11:17;;;;;;;33.85;23.23;;;;;;;21.88;56.08;101270.50;10356190;28;20117;-71
2021/07/10 17:16:18;;;;;;;38.45;23.40;;;;;;;23.18;56.43;101488.09;10374294;28;20058;-71
2021/07/10 17:21:18;;;;;;;27.55;21.35;;;;;;;22.90;56.44;101456.97;10372834;28;20037;-72
2021/07/10 17:26:18;;;;;;;24.90;20.15;;;;;;;23.01;56.27;101515.91;10374016;28;20555;-72
2021/07/10 17:31:21;;;;;;;26.50;19.45;;;;;;;22.97;55.50;101492.66;10373615;28;20121;-72
2021/07/10 17:36:22;;;;;;;22.52;17.60;;;;;;;22.94;55.75;101491.28;10371877;28;20080;-72
2021/07/10 17:41:23;;;;;;;29.50;20.50;;;;;;;22.93;55.58;101469.41;10372518;28;20513;-71
2021/07/10 17:46:24;;;;;;;33.10;22.50;;;;;;;22.77;55.54;101465.72;10356073;28;20117;-71
2021/07/10 17:51:26;;;;;;;23.48;18.95;;;;;;;22.67;55.96;101469.22;10372162;28;20496;-70
2021/07/10 17:56:26;;;;;;;27.98;19.15;;;;;;;22.78;56.27;101499.69;10372010;28;20041;-71
2021/07/10 18:01:27;;;;;;;32.42;20.42;;;;;;;22.77;55.91;101493.31;10372925;28;20065;-70
2021/07/10 18:06:27;;;;;;;28.70;20.77;;;;;;;22.80;56.02;101506.59;10354453;28;20058;-72
2021/07/10 18:11:28;;;;;;;30.95;19.63;;;;;;;22.52;55.95;101480.97;10372840;28;20052;-71
2021/07/10 18:16:28;;;;;;;21.08;14.88;;;;;;;22.70;55.89;101512.06;10355302;28;20072;-72
2021/07/10 18:21:29;;;;;;;24.10;17.30;;;;;;;22.59;56.31;101518.56;10375134;28;20138;-71
2021/07/10 18:26:29;;;;;;;25.35;18.52;;;;;;;22.44;56.61;101519.28;10380149;28;20084;-71
2021/07/10 18:31:29;;;;;;;22.05;18.17;;;;;;;22.28;56.86;101510.03;10379985;28;20042;-71
2021/07/10 18:36:30;;;;;;;22.13;16.15;;;;;;;22.26;57.06;101521.31;10378886;28;20041;-71
2021/07/10 18:41:31;;;;;;;18.90;15.50;;;;;;;21.50;57.06;101405.47;10378420;28;20117;-71
2021/07/10 18:46:31;;;;;;;21.50;17.05;;;;;;;22.14;57.27;101522.53;10379252;28;20033;-70
2021/07/10 18:51:32;;;;;;;24.45;18.05;;;;;;;21.16;57.71;101385.50;10377956;28;20044;-71
2021/07/10 18:56:32;;;;;;;16.92;14.98;;;;;;;22.03;57.28;101529.88;10361329;28;20026;-71
2021/07/10 19:01:33;;;;;;;21.95;16.88;;;;;;;18.78;57.89;101069.91;10378611;28;20033;-71
2021/07/10 19:06:33;;;;;;;22.83;17.05;;;;;;;21.22;57.83;101400.16;10377146;28;20539;-72
2021/07/10 19:11:33;;;;;;;24.88;17.92;;;;;;;21.89;57.88;101520.31;10378378;28;20034;-71
2021/07/10 19:16:34;;;;;;;22.60;17.48;;;;;;;20.97;57.81;101387.75;10376987;28;20033;-70
2021/07/10 19:21:34;;;;;;;21.17;16.55;;;;;;;20.90;57.91;101384.34;10376827;28;20055;-71
2021/07/10 19:26:34;;;;;;;23.45;18.20;;;;;;;21.62;58.51;101520.28;10377868;28;20468;-71
2021/07/10 19:31:35;;;;;;;21.75;17.33;;;;;;;21.63;58.56;101532.97;10375985;28;20041;-71
2021/07/10 19:36:36;;;;;;;26.50;17.90;;;;;;;20.50;58.23;101363.38;10374915;28;20176;-71
2021/07/10 19:41:36;;;;;;;22.50;17.67;;;;;;;21.32;58.61;101518.75;10375978;28;20026;-71
2021/07/10 19:46:37;;;;;;;22.40;15.43;;;;;;;21.27;58.51;101536.03;10376636;28;20120;-72
2021/07/10 19:51:38;;;;;;;24.80;15.45;;;;;;;21.01;58.67;101529.31;10376733;28;20381;-72
2021/07/10 19:56:38;;;;;;;25.83;16.10;;;;;;;20.98;58.48;101551.84;10375788;28;20065;-72
2021/07/10 20:01:39;;;;;;;24.15;14.77;;;;;;;20.85;58.95;101546.69;10376150;28;20458;-71
2021/07/10 20:06:39;;;;;;;24.85;17.33;;;;;;;20.60;59.14;101536.91;10375318;28;20062;-71
2021/07/10 20:11:40;;;;;;;18.33;14.98;;;;;;;20.67;58.98;101551.34;10376918;28;20077;-71
2021/07/10 20:16:40;;;;;;;20.40;14.82;;;;;;;20.56;59.14;101555.00;10374787;28;20560;-71
2021/07/10 20:21:41;;;;;;;16.75;15.00;;;;;;;20.46;59.30;101568.56;10375053;28;20121;-72
2021/07/10 20:26:42;;;;;;;25.98;17.10;;;;;;;20.33;59.60;101579.88;10375756;28;20524;-73
2021/07/10 20:31:42;;;;;;;25.17;16.77;;;;;;;20.26;59.49;101563.53;10374633;28;20390;-71
2021/07/10 20:36:43;;;;;;;25.13;17.05;;;;;;;20.20;59.72;101557.06;10374649;28;20046;-71
2021/07/10 20:41:44;;;;;;;24.15;17.60;;;;;;;20.07;59.58;101549.13;10374387;28;20099;-71
2021/07/10 20:46:44;;;;;;;26.85;17.55;;;;;;;20.09;59.88;101554.38;10356395;28;20129;-71
2021/07/10 20:51:46;;;;;;;25.33;18.83;;;;;;;20.03;59.82;101564.41;10373545;28;20076;-71
2021/07/10 20:56:47;;;;;;;22.85;18.27;;;;;;;19.67;59.97;101505.97;10357372;28;20037;-71
2021/07/10 21:01:47;;;;;;;33.80;17.80;;;;;;;19.81;59.94;101535.94;10357016;28;20034;-72
2021/07/10 21:06:47;;;;;;;29.58;17.55;;;;;;;19.29;60.12;101457.91;10372286;28;20452;-71
2021/07/10 21:11:50;;;;;;;19.88;16.95;;;;;;;19.83;60.10;101564.84;10373279;28;20041;-71
2021/07/10 21:16:50;;;;;;;24.15;18.80;;;;;;;19.61;60.34;101525.31;10357651;28;20033;-71
2021/07/10 21:21:50;;;;;;;27.63;18.13;;;;;;;19.74;60.44;101561.63;10375534;28;20060;-72
2021/07/10 21:26:52;;;;;;;22.92;16.40;;;;;;;19.73;60.35;101567.38;10373852;28;20033;-72
2021/07/10 21:31:53;;;;;;;25.20;17.25;;;;;;;19.68;60.49;101570.84;10373326;28;20044;-71
2021/07/10 21:36:53;;;;;;;26.75;17.65;;;;;;;19.63;60.20;101558.91;10373110;28;20381;-72
2021/07/10 21:41:54;;;;;;;28.70;16.58;;;;;;;19.62;60.55;101568.19;10356629;28;20112;-72
2021/07/10 21:46:54;;;;;;;29.70;19.45;;;;;;;19.59;60.54;101566.78;10373975;28;20064;-72
2021/07/10 21:51:54;;;;;;;32.70;17.83;;;;;;;19.61;60.60;101583.84;10373958;28;20041;-72
2021/07/10 21:56:55;;;;;;;21.60;16.42;;;;;;;18.04;60.50;101329.38;10377682;28;20030;-72
2021/07/10 22:01:56;;;;;;;22.25;17.73;;;;;;;19.59;60.45;101582.41;10381302;28;20030;-72
2021/07/10 22:06:56;;;;;;;24.95;16.35;;;;;;;19.39;60.64;101577.31;10381933;28;20100;-71
2021/07/10 22:11:57;;;;;;;21.13;17.42;;;;;;;19.56;61.20;101600.25;10381834;28;20075;-71
2021/07/10 22:16:57;;;;;;;31.40;19.38;;;;;;;19.64;61.24;101605.38;10379807;28;20049;-72
2021/07/10 22:21:57;;;;;;;24.70;18.67;;;;;;;19.63;60.97;101595.44;10363275;28;20034;-72
2021/07/10 22:26:58;;;;;;;34.47;18.60;;;;;;;19.80;60.66;101611.22;10380919;28;20077;-72
2021/07/10 22:31:58;;;;;;;25.10;17.70;;;;;;;19.04;60.65;101482.06;10380734;28;20076;-72
2021/07/10 22:36:59;;;;;;;26.42;16.83;;;;;;;19.98;60.54;101602.81;10380002;28;20401;-73